Time;durP1;ratioP1;P1;durP2;ratioP2;P2;SDS_P1;SDS_P2;PMS_P1;PMS_P2;Temp;Humidity;BMP_temperature;BMP_pressure;BME280_temperature;BME280_humidity;BME280_pressure;Samples;Min_cycle;Max_cycle;Signal;HPM_P1;HPM_P2
2022/12/01 00:00:55;;;;;;;15.97;10.03;;;4.60;99.90;;;;;;5012155;28;20186;-86
2022/12/01 00:03:21;;;;;;;19.83;10.33;;;4.60;99.90;;;;;;4995627;28;20266;-87
2022/12/01 00:05:47;;;;;;;17.57;10.80;;;4.60;99.90;;;;;;5011623;28;20214;-86
2022/12/01 00:08:13;;;;;;;16.77;9.80;;;4.60;99.90;;;;;;4995552;28;20187;-86
2022/12/01 00:10:38;;;;;;;17.90;10.43;;;4.60;99.90;;;;;;5011905;28;20183;-86
2022/12/01 00:13:05;;;;;;;17.57;10.43;;;4.60;99.90;;;;;;5011770;28;20184;-86
2022/12/01 00:15:34;;;;;;;16.80;10.03;;;4.60;99.90;;;;;;4995494;28;20252;-86
2022/12/01 00:18:07;;;;;;;16.57;9.73;;;4.60;99.90;;;;;;4995170;28;20202;-87
2022/12/01 00:20:34;;;;;;;16.53;9.87;;;4.60;99.90;;;;;;5012118;28;20293;-86
2022/12/01 00:23:00;;;;;;;17.73;10.90;;;4.60;99.90;;;;;;5011746;28;20175;-86
2022/12/01 00:25:27;;;;;;;15.73;9.57;;;4.60;99.90;;;;;;4995512;28;20204;-86
2022/12/01 00:27:54;;;;;;;17.30;9.70;;;4.60;99.90;;;;;;5011439;28;20183;-86
2022/12/01 00:30:21;;;;;;;15.40;9.93;;;4.60;99.90;;;;;;4995613;28;20219;-86
2022/12/01 00:32:47;;;;;;;18.27;10.07;;;4.60;99.90;;;;;;4995275;28;20187;-86
2022/12/01 00:35:14;;;;;;;19.40;10.57;;;4.60;99.90;;;;;;5011317;28;20196;-86
2022/12/01 00:37:41;;;;;;;17.53;10.37;;;4.60;99.90;;;;;;4994835;28;20217;-86
2022/12/01 00:40:08;;;;;;;17.77;10.73;;;4.60;99.90;;;;;;4995423;28;20184;-86
2022/12/01 00:42:34;;;;;;;18.57;10.13;;;4.60;99.90;;;;;;4995265;28;20202;-86
2022/12/01 00:45:01;;;;;;;17.23;10.17;;;4.60;99.90;;;;;;5011247;28;20238;-86
2022/12/01 00:47:27;;;;;;;18.73;11.30;;;4.60;99.90;;;;;;5010131;28;20186;-86
2022/12/01 00:49:52;;;;;;;17.50;11.43;;;4.60;99.90;;;;;;4994790;28;20210;-86
2022/12/01 00:52:19;;;;;;;19.30;10.80;;;4.60;99.90;;;;;;4994807;28;20176;-86
2022/12/01 00:54:46;;;;;;;18.67;10.60;;;4.60;99.90;;;;;;4995566;28;20168;-86
2022/12/01 00:57:12;;;;;;;19.20;11.03;;;4.50;99.90;;;;;;5011270;28;20521;-86
2022/12/01 00:59:38;;;;;;;19.10;11.03;;;4.50;99.90;;;;;;5011689;28;20223;-86
2022/12/01 01:02:06;;;;;;;21.07;11.50;;;4.50;99.90;;;;;;4994946;28;20282;-86
2022/12/01 01:04:34;;;;;;;19.27;11.17;;;4.40;99.90;;;;;;4995163;28;20206;-86
2022/12/01 01:07:00;;;;;;;19.70;11.53;;;4.40;99.90;;;;;;4994888;28;20199;-86
2022/12/01 01:09:26;;;;;;;20.23;11.80;;;4.40;99.90;;;;;;5005486;28;20178;-86
2022/12/01 01:11:53;;;;;;;19.00;11.10;;;4.40;99.90;;;;;;5011111;28;20193;-86
2022/12/01 01:14:20;;;;;;;20.07;11.57;;;4.40;99.90;;;;;;5011544;28;20177;-86
2022/12/01 01:16:46;;;;;;;20.33;11.40;;;4.50;99.90;;;;;;5011147;28;20201;-86
2022/12/01 01:19:12;;;;;;;18.37;11.07;;;4.40;99.90;;;;;;5011262;28;20201;-86
2022/12/01 01:21:38;;;;;;;20.63;11.77;;;4.40;99.90;;;;;;5011574;28;20184;-86
2022/12/01 01:24:05;;;;;;;20.17;11.13;;;4.40;99.90;;;;;;4994927;28;20229;-86
2022/12/01 01:26:32;;;;;;;19.53;11.70;;;4.40;99.90;;;;;;4994497;28;20207;-86
2022/12/01 01:29:00;;;;;;;23.37;11.33;;;4.40;99.90;;;;;;5011061;28;20175;-86
2022/12/01 01:31:28;;;;;;;21.23;11.80;;;4.30;99.90;;;;;;4994854;28;20192;-87
2022/12/01 01:33:55;;;;;;;21.80;11.83;;;4.30;99.90;;;;;;5010981;28;20221;-86
2022/12/01 01:36:22;;;;;;;19.97;11.40;;;4.30;99.90;;;;;;4994535;28;20288;-86
2022/12/01 01:38:52;;;;;;;20.47;11.63;;;4.30;99.90;;;;;;5010886;28;20330;-86
2022/12/01 01:41:20;;;;;;;20.50;11.57;;;4.30;99.90;;;;;;5009606;28;20188;-86
2022/12/01 01:43:58;;;;;;;19.83;11.83;;;4.30;99.90;;;;;;5011108;28;20248;-86
2022/12/01 01:46:33;;;;;;;24.10;13.07;;;4.40;99.90;;;;;;5013045;28;20281;-86
2022/12/01 01:49:06;;;;;;;19.70;12.10;;;4.30;99.90;;;;;;4997988;28;20183;-86
2022/12/01 01:51:40;;;;;;;21.27;11.90;;;4.30;99.90;;;;;;5014411;28;20183;-86
2022/12/01 01:54:14;;;;;;;18.93;11.20;;;4.20;99.90;;;;;;4998122;28;20193;-86
2022/12/01 01:56:42;;;;;;;23.63;12.17;;;4.20;99.90;;;;;;4997264;28;20206;-86
2022/12/01 01:59:10;;;;;;;24.17;12.90;;;4.30;99.90;;;;;;5014155;28;20258;-86
2022/12/01 02:01:36;;;;;;;20.10;12.20;;;4.30;99.90;;;;;;5014454;28;20184;-86
2022/12/01 02:04:02;;;;;;;20.47;12.20;;;4.30;99.90;;;;;;4994393;28;20179;-86
2022/12/01 02:06:28;;;;;;;22.63;12.43;;;4.20;99.90;;;;;;5014041;28;20199;-86
2022/12/01 02:08:54;;;;;;;20.83;12.43;;;4.30;99.90;;;;;;4997352;28;20191;-86
2022/12/01 02:11:49;;;;;;;18.67;11.83;;;4.30;99.90;;;;;;5013962;28;20180;-86
2022/12/01 02:14:32;;;;;;;21.97;12.17;;;4.30;99.90;;;;;;5013781;28;20535;-86
2022/12/01 02:17:29;;;;;;;23.90;13.60;;;4.30;99.90;;;;;;5002843;28;20701;-86
2022/12/01 02:20:52;;;;;;;26.27;13.63;;;4.30;99.90;;;;;;4975663;28;20210;-86
2022/12/01 02:24:02;;;;;;;22.13;13.13;;;4.30;99.90;;;;;;4922489;29;20190;-86
2022/12/01 02:26:46;;;;;;;25.03;12.97;;;4.20;99.90;;;;;;4930355;28;20204;-86
2022/12/01 02:29:37;;;;;;;22.93;13.10;;;4.20;99.90;;;;;;5013531;28;20187;-86
2022/12/01 02:32:31;;;;;;;22.67;13.20;;;4.20;99.90;;;;;;4997476;28;20190;-86
2022/12/01 02:35:23;;;;;;;21.40;13.60;;;4.20;99.90;;;;;;5013721;28;20190;-87
2022/12/01 02:38:09;;;;;;;22.73;13.13;;;4.30;99.90;;;;;;5013590;28;20249;-86
2022/12/01 02:41:18;;;;;;;22.83;12.57;;;4.30;99.90;;;;;;5013443;28;20169;-86
2022/12/01 02:44:16;;;;;;;23.93;13.70;;;4.30;99.90;;;;;;5013447;28;20282;-86
2022/12/01 02:46:53;;;;;;;26.50;13.73;;;4.40;99.90;;;;;;5013411;28;20795;-86
2022/12/01 02:49:24;;;;;;;27.70;15.43;;;4.40;99.90;;;;;;4997354;28;20165;-86
2022/12/01 02:51:53;;;;;;;23.77;14.50;;;4.40;99.90;;;;;;5012648;28;20235;-87
2022/12/01 02:54:19;;;;;;;26.07;14.80;;;4.40;99.90;;;;;;5012727;28;20188;-86
2022/12/01 02:56:45;;;;;;;26.43;15.13;;;4.40;99.90;;;;;;4995415;28;20208;-86
2022/12/01 02:59:14;;;;;;;25.77;14.73;;;4.40;99.90;;;;;;5013068;28;20203;-86
2022/12/01 03:01:49;;;;;;;26.10;15.43;;;4.30;99.90;;;;;;5012143;28;20183;-87
2022/12/01 03:04:34;;;;;;;26.40;15.77;;;4.30;99.90;;;;;;4996338;28;20171;-87
2022/12/01 03:07:39;;;;;;;26.90;15.57;;;4.30;99.90;;;;;;4996407;28;20298;-86
2022/12/01 03:10:13;;;;;;;26.60;15.40;;;4.30;99.90;;;;;;5010115;28;20176;-87
2022/12/01 03:13:20;;;;;;;29.03;14.83;;;4.30;99.90;;;;;;4993354;28;20294;-86
2022/12/01 03:15:54;;;;;;;27.00;15.27;;;4.30;99.90;;;;;;4961111;28;20212;-86
2022/12/01 03:18:29;;;;;;;25.47;14.00;;;4.30;99.90;;;;;;4992942;28;20200;-86
2022/12/01 03:21:10;;;;;;;27.37;15.27;;;4.30;99.90;;;;;;5009236;28;20199;-86
2022/12/01 03:23:45;;;;;;;27.67;15.80;;;4.30;99.90;;;;;;4975344;28;20195;-86
2022/12/01 03:26:18;;;;;;;30.10;16.47;;;4.30;99.90;;;;;;4992526;28;20207;-87
2022/12/01 03:29:09;;;;;;;26.27;14.43;;;4.30;99.90;;;;;;4993025;28;20174;-87
2022/12/01 03:31:42;;;;;;;25.97;16.07;;;4.30;99.90;;;;;;4976779;28;20169;-86
2022/12/01 03:34:22;;;;;;;27.53;16.20;;;4.30;99.90;;;;;;4993541;28;20174;-87
2022/12/01 03:36:56;;;;;;;25.27;14.90;;;4.30;99.90;;;;;;4995949;28;20207;-87
2022/12/01 03:39:27;;;;;;;23.97;14.50;;;4.30;99.90;;;;;;4995973;28;20211;-86
2022/12/01 03:42:01;;;;;;;24.27;14.70;;;4.30;99.90;;;;;;5012807;28;20720;-86
2022/12/01 03:44:35;;;;;;;26.80;15.93;;;4.30;99.90;;;;;;4995968;28;20254;-86
2022/12/01 03:47:13;;;;;;;25.37;15.00;;;4.30;99.90;;;;;;5012098;28;20313;-87
2022/12/01 03:49:39;;;;;;;26.13;15.83;;;4.30;99.90;;;;;;4996019;28;20175;-86
2022/12/01 03:52:18;;;;;;;25.00;15.40;;;4.30;99.90;;;;;;4995914;28;20188;-86
2022/12/01 03:55:20;;;;;;;26.33;15.20;;;4.20;99.90;;;;;;4996110;28;20176;-86
2022/12/01 03:57:57;;;;;;;26.37;16.17;;;4.10;99.90;;;;;;5011840;28;20205;-86
2022/12/01 04:00:24;;;;;;;26.40;15.73;;;4.10;99.90;;;;;;4996031;28;20206;-86
2022/12/01 04:02:57;;;;;;;27.90;16.60;;;4.20;99.90;;;;;;4995854;28;20189;-86
2022/12/01 04:05:24;;;;;;;27.03;16.13;;;4.10;99.90;;;;;;5012224;28;20230;-86
2022/12/01 04:07:50;;;;;;;30.03;15.80;;;4.10;99.90;;;;;;5011567;28;20333;-86
2022/12/01 04:10:16;;;;;;;23.93;14.57;;;4.10;99.90;;;;;;4995377;28;20617;-86
2022/12/01 04:12:42;;;;;;;25.80;15.47;;;4.10;99.90;;;;;;5012120;28;20190;-87
2022/12/01 04:15:11;;;;;;;27.93;15.70;;;4.10;99.90;;;;;;4995525;28;20184;-86
2022/12/01 04:17:38;;;;;;;31.67;16.03;;;4.10;99.90;;;;;;5011685;28;20183;-87
2022/12/01 04:20:05;;;;;;;27.53;16.43;;;4.10;99.90;;;;;;5011690;28;20180;-87
2022/12/01 04:22:32;;;;;;;27.57;14.73;;;4.10;99.90;;;;;;5011736;28;20194;-87
2022/12/01 04:24:58;;;;;;;28.60;15.87;;;4.00;99.90;;;;;;5011854;28;20175;-86
2022/12/01 04:27:24;;;;;;;26.97;15.37;;;4.00;99.90;;;;;;5011863;28;20200;-87
2022/12/01 04:29:50;;;;;;;29.73;16.70;;;4.00;99.90;;;;;;4995501;28;20202;-86
2022/12/01 04:32:16;;;;;;;28.10;16.13;;;4.10;99.90;;;;;;4995414;28;20186;-86
2022/12/01 04:34:42;;;;;;;27.63;16.67;;;4.10;99.90;;;;;;4995136;28;20229;-86
2022/12/01 04:37:08;;;;;;;27.00;16.23;;;4.10;99.90;;;;;;4994917;28;20195;-86
2022/12/01 04:39:35;;;;;;;30.27;16.87;;;4.10;99.90;;;;;;5007341;28;20230;-87
2022/12/01 04:42:05;;;;;;;28.57;16.07;;;4.00;99.90;;;;;;4995531;28;20187;-87
2022/12/01 04:44:31;;;;;;;28.93;15.60;;;3.90;99.90;;;;;;5012105;28;20207;-87
2022/12/01 04:46:56;;;;;;;29.97;16.70;;;3.90;99.90;;;;;;4992491;28;20739;-87
2022/12/01 04:49:22;;;;;;;29.23;15.97;;;3.90;99.90;;;;;;4975949;28;20221;-88
2022/12/01 04:51:48;;;;;;;26.23;15.77;;;4.00;99.90;;;;;;4992446;28;20175;-87
2022/12/01 04:54:21;;;;;;;28.70;16.43;;;4.00;99.90;;;;;;4995051;28;20204;-87
2022/12/01 04:56:47;;;;;;;30.03;16.70;;;4.00;99.90;;;;;;4994883;28;20199;-88
2022/12/01 04:59:13;;;;;;;28.10;15.67;;;4.00;99.90;;;;;;5011763;28;20195;-87
2022/12/01 05:01:40;;;;;;;27.77;15.27;;;4.00;99.90;;;;;;4994822;28;20185;-87
2022/12/01 05:04:09;;;;;;;24.20;14.67;;;4.00;99.90;;;;;;5010964;28;20179;-86
2022/12/01 05:06:35;;;;;;;25.90;15.40;;;4.00;99.90;;;;;;4994700;28;20207;-86
2022/12/01 05:09:01;;;;;;;30.30;15.93;;;3.80;99.90;;;;;;5011528;28;20233;-87
2022/12/01 05:11:29;;;;;;;28.53;16.40;;;3.80;99.90;;;;;;5011642;28;20210;-87
2022/12/01 05:13:55;;;;;;;26.13;15.33;;;3.70;99.90;;;;;;5011304;28;20227;-87
2022/12/01 05:16:31;;;;;;;23.40;13.57;;;3.70;99.90;;;;;;5011247;28;20199;-87
2022/12/01 05:21:46;;;;;;;25.27;15.43;;;3.70;99.90;;;;;;5014200;28;20172;-87
2022/12/01 05:24:13;;;;;;;27.33;15.63;;;3.70;99.90;;;;;;5014993;28;20179;-87
2022/12/01 05:26:40;;;;;;;25.50;14.93;;;3.70;99.90;;;;;;5014205;28;20195;-87
2022/12/01 05:29:13;;;;;;;26.87;15.57;;;3.70;99.90;;;;;;4998910;28;20190;-87
2022/12/01 05:31:39;;;;;;;27.97;15.70;;;3.60;99.90;;;;;;4998454;28;20180;-87
2022/12/01 05:34:06;;;;;;;26.27;15.67;;;3.70;99.90;;;;;;4998475;28;20187;-87
2022/12/01 05:36:32;;;;;;;28.80;15.50;;;3.60;99.90;;;;;;4998191;28;20309;-87
2022/12/01 05:38:58;;;;;;;25.47;14.73;;;3.60;99.90;;;;;;4998654;28;20203;-87
2022/12/01 05:41:24;;;;;;;27.27;14.93;;;3.60;99.90;;;;;;4998916;28;20175;-87
2022/12/01 05:43:50;;;;;;;29.53;16.03;;;3.60;99.90;;;;;;5015219;28;20175;-86
2022/12/01 05:46:16;;;;;;;27.90;15.37;;;3.60;99.90;;;;;;4998936;28;20203;-88
2022/12/01 05:49:05;;;;;;;29.00;16.27;;;3.60;99.90;;;;;;4978750;28;20279;-88
2022/12/01 05:51:31;;;;;;;29.17;15.67;;;3.60;99.90;;;;;;4995432;28;20231;-88
2022/12/01 05:54:00;;;;;;;27.60;15.93;;;3.60;99.90;;;;;;4995207;28;20196;-88
2022/12/01 05:56:26;;;;;;;28.30;15.33;;;3.60;99.90;;;;;;4995170;28;20230;-87
2022/12/01 05:58:52;;;;;;;27.57;14.47;;;3.60;99.90;;;;;;4994888;28;20212;-87
2022/12/01 06:01:18;;;;;;;29.57;16.03;;;3.60;99.90;;;;;;5002433;28;20240;-88
2022/12/01 06:03:45;;;;;;;27.63;15.83;;;3.50;99.90;;;;;;5014527;28;20179;-88
2022/12/01 06:06:12;;;;;;;28.67;15.67;;;3.50;99.90;;;;;;5014215;28;20207;-88
2022/12/01 06:08:38;;;;;;;29.10;16.27;;;3.50;99.90;;;;;;5014777;28;20186;-88
2022/12/01 06:11:04;;;;;;;30.27;15.40;;;3.50;99.90;;;;;;4998225;28;20183;-87
2022/12/01 06:13:30;;;;;;;27.40;15.07;;;3.50;99.90;;;;;;4998317;28;20190;-87
2022/12/01 06:16:04;;;;;;;26.30;15.50;;;3.40;99.90;;;;;;4998244;28;20199;-87
2022/12/01 06:18:35;;;;;;;26.03;14.43;;;3.40;99.90;;;;;;5014389;28;20203;-87
2022/12/01 06:21:02;;;;;;;27.43;15.40;;;3.30;99.90;;;;;;5014880;28;20679;-87
2022/12/01 06:23:27;;;;;;;26.83;15.60;;;3.30;99.90;;;;;;5014196;28;20171;-87
2022/12/01 06:25:53;;;;;;;28.43;16.13;;;3.30;99.90;;;;;;4997196;28;20199;-88
2022/12/01 06:28:19;;;;;;;24.83;14.57;;;3.30;99.90;;;;;;4997873;28;20183;-87
2022/12/01 06:30:45;;;;;;;25.33;14.53;;;3.40;99.90;;;;;;4997734;28;20175;-87
2022/12/01 06:33:11;;;;;;;31.37;16.50;;;3.40;99.90;;;;;;4997306;28;20183;-87
2022/12/01 06:35:37;;;;;;;31.07;16.30;;;3.40;99.90;;;;;;4997593;28;20230;-87
2022/12/01 06:38:03;;;;;;;26.83;14.87;;;3.40;99.90;;;;;;4997516;28;20211;-88
2022/12/01 06:40:30;;;;;;;27.33;15.37;;;3.40;99.90;;;;;;5014057;28;20187;-89
2022/12/01 06:43:00;;;;;;;28.63;16.73;;;3.40;99.90;;;;;;5012798;28;20183;-82
2022/12/01 06:45:26;;;;;;;28.10;15.67;;;3.50;99.90;;;;;;5013805;28;20307;-86
2022/12/01 06:47:53;;;;;;;28.00;16.17;;;3.50;99.90;;;;;;5013350;28;20278;-86
2022/12/01 06:50:19;;;;;;;25.37;14.87;;;3.50;99.90;;;;;;4995146;28;20180;-86
2022/12/01 06:52:45;;;;;;;27.90;16.23;;;3.50;99.90;;;;;;4977444;28;20246;-87
2022/12/01 06:55:11;;;;;;;25.17;15.33;;;3.50;99.90;;;;;;4993599;28;20230;-86
2022/12/01 06:57:37;;;;;;;24.30;15.17;;;3.40;99.90;;;;;;4992900;28;20191;-86
2022/12/01 07:00:04;;;;;;;27.53;15.93;;;3.40;99.90;;;;;;4993093;28;20219;-86
2022/12/01 07:02:30;;;;;;;24.93;14.60;;;3.40;99.90;;;;;;4987185;28;20176;-86
2022/12/01 07:04:56;;;;;;;25.80;14.73;;;3.50;99.90;;;;;;4984980;28;20197;-86
2022/12/01 07:07:23;;;;;;;26.47;15.03;;;3.50;99.90;;;;;;5003350;28;20210;-86
2022/12/01 07:09:49;;;;;;;27.07;15.20;;;3.50;99.90;;;;;;5001393;28;20188;-86
2022/12/01 07:12:17;;;;;;;25.90;14.87;;;3.50;99.90;;;;;;5011283;28;20276;-87
2022/12/01 07:14:44;;;;;;;24.87;14.93;;;3.50;99.90;;;;;;4996467;28;20272;-87
2022/12/01 07:17:11;;;;;;;27.33;15.40;;;3.50;99.90;;;;;;4996396;28;20294;-86
2022/12/01 07:19:37;;;;;;;25.43;15.40;;;3.50;99.90;;;;;;5029048;28;20210;-87
2022/12/01 07:22:03;;;;;;;27.67;14.53;;;3.50;99.90;;;;;;5013038;28;20179;-87
2022/12/01 07:24:30;;;;;;;28.63;15.27;;;3.50;99.90;;;;;;4989544;28;20180;-86
2022/12/01 07:26:56;;;;;;;27.80;15.43;;;3.40;99.90;;;;;;4990253;28;20204;-87
2022/12/01 07:29:22;;;;;;;24.90;14.13;;;3.50;99.90;;;;;;4996468;28;20202;-85
2022/12/01 07:31:48;;;;;;;24.97;15.17;;;3.50;99.90;;;;;;4996574;28;20183;-86
2022/12/01 07:34:14;;;;;;;25.00;14.67;;;3.50;99.90;;;;;;5012308;28;20179;-86
2022/12/01 07:36:40;;;;;;;28.77;15.77;;;3.40;99.90;;;;;;5012268;28;20250;-86
2022/12/01 07:39:07;;;;;;;26.60;14.93;;;3.50;99.90;;;;;;4996443;28;20569;-86
2022/12/01 07:41:34;;;;;;;26.40;15.20;;;3.40;99.90;;;;;;4996104;28;20179;-86
2022/12/01 07:44:00;;;;;;;29.33;16.47;;;3.50;99.90;;;;;;5011676;28;20183;-86
2022/12/01 07:46:27;;;;;;;30.53;16.70;;;3.40;99.90;;;;;;5012477;28;20195;-86
2022/12/01 07:48:54;;;;;;;30.50;16.70;;;3.50;99.90;;;;;;4996437;28;20218;-86
2022/12/01 07:51:49;;;;;;;29.97;17.03;;;3.50;99.90;;;;;;5012232;28;20228;-86
2022/12/01 07:54:16;;;;;;;29.63;16.10;;;3.50;99.90;;;;;;4995990;28;20214;-86
2022/12/01 07:56:42;;;;;;;27.07;15.50;;;3.50;99.90;;;;;;5010112;28;20203;-86
2022/12/01 07:59:08;;;;;;;28.70;15.23;;;3.50;99.90;;;;;;4995503;28;20207;-85
2022/12/01 08:01:34;;;;;;;28.63;15.57;;;3.50;99.90;;;;;;4995764;28;20175;-86
2022/12/01 08:04:00;;;;;;;31.30;17.47;;;3.40;99.90;;;;;;5011593;28;20193;-86
2022/12/01 08:06:26;;;;;;;28.73;15.47;;;3.40;99.90;;;;;;4995585;28;20202;-85
2022/12/01 08:08:52;;;;;;;30.63;16.63;;;3.40;99.90;;;;;;4995956;28;20205;-86
2022/12/01 08:11:31;;;;;;;30.97;16.10;;;3.40;99.90;;;;;;4995695;28;20266;-89
2022/12/01 08:13:57;;;;;;;28.77;16.10;;;3.40;99.90;;;;;;4998376;28;20183;-84
2022/12/01 08:16:24;;;;;;;30.33;16.20;;;3.30;99.90;;;;;;4995504;28;20195;-87
2022/12/01 08:18:50;;;;;;;31.00;16.47;;;3.30;99.90;;;;;;5011641;28;20294;-86
2022/12/01 08:21:19;;;;;;;27.40;15.90;;;3.20;99.90;;;;;;4995289;28;20624;-86
2022/12/01 08:23:46;;;;;;;35.83;15.83;;;3.20;99.90;;;;;;4995176;28;20168;-86
2022/12/01 08:26:18;;;;;;;30.37;16.83;;;3.20;99.90;;;;;;5001496;28;20195;-87
2022/12/01 08:28:44;;;;;;;29.90;17.03;;;3.20;99.90;;;;;;4980022;28;20176;-87
2022/12/01 08:31:21;;;;;;;28.60;16.03;;;3.20;99.90;;;;;;4992861;28;20194;-87
2022/12/01 08:33:48;;;;;;;37.93;18.17;;;3.30;99.90;;;;;;5011718;28;20183;-86
2022/12/01 08:36:14;;;;;;;34.50;18.57;;;3.20;99.90;;;;;;5011487;28;20204;-87
2022/12/01 08:38:43;;;;;;;32.57;17.97;;;3.20;99.90;;;;;;4995283;28;20202;-86
2022/12/01 08:41:10;;;;;;;36.27;18.70;;;3.10;99.90;;;;;;5012088;28;20334;-86
2022/12/01 08:43:41;;;;;;;35.10;18.60;;;3.10;99.90;;;;;;5003739;28;20176;-87
2022/12/01 08:46:08;;;;;;;31.90;17.50;;;3.10;99.90;;;;;;4995263;28;20198;-87
2022/12/01 08:48:34;;;;;;;34.73;18.13;;;3.10;99.90;;;;;;5010499;28;20237;-87
2022/12/01 08:51:14;;;;;;;42.07;20.77;;;3.20;99.90;;;;;;5011732;28;20190;-86
2022/12/01 08:53:44;;;;;;;32.17;17.83;;;3.20;99.90;;;;;;5011229;28;20202;-87
2022/12/01 08:56:23;;;;;;;34.27;18.80;;;3.20;99.90;;;;;;5013509;28;20206;-86
2022/12/01 08:58:50;;;;;;;35.50;17.87;;;3.20;99.90;;;;;;5014620;28;20191;-87
2022/12/01 09:01:17;;;;;;;35.37;18.43;;;3.20;99.90;;;;;;4998548;28;20207;-86
2022/12/01 09:03:43;;;;;;;33.30;18.47;;;3.20;99.90;;;;;;4998787;28;20187;-87
2022/12/01 09:06:11;;;;;;;34.57;19.23;;;3.10;99.90;;;;;;4999058;28;20290;-86
2022/12/01 09:08:38;;;;;;;33.10;18.00;;;3.20;99.90;;;;;;4998717;28;20225;-86
2022/12/01 09:11:17;;;;;;;38.73;19.17;;;3.20;99.90;;;;;;5004445;28;20191;-87
2022/12/01 09:13:46;;;;;;;32.17;18.53;;;3.20;99.90;;;;;;5004708;28;20644;-87
2022/12/01 09:16:17;;;;;;;34.57;19.40;;;3.30;99.90;;;;;;5001957;28;20291;-87
2022/12/01 09:18:46;;;;;;;36.40;19.83;;;3.40;99.90;;;;;;4999329;28;20199;-86
2022/12/01 09:21:19;;;;;;;41.43;19.93;;;3.40;99.90;;;;;;4995671;28;20203;-86
2022/12/01 09:23:46;;;;;;;38.83;19.13;;;3.30;99.90;;;;;;4982577;28;20192;-87
2022/12/01 09:26:16;;;;;;;42.03;21.23;;;3.40;99.90;;;;;;4999127;28;20192;-87
2022/12/01 09:28:44;;;;;;;34.57;19.50;;;3.40;99.90;;;;;;5006779;28;20174;-86
2022/12/01 09:31:11;;;;;;;37.00;19.10;;;3.50;99.90;;;;;;5008982;28;20225;-86
2022/12/01 09:33:38;;;;;;;34.17;19.57;;;3.50;99.90;;;;;;5007191;28;20179;-86
2022/12/01 09:36:06;;;;;;;35.33;19.13;;;3.50;99.90;;;;;;5007384;28;20692;-87
2022/12/01 09:38:35;;;;;;;33.77;19.30;;;3.60;99.90;;;;;;5010388;28;20199;-86
2022/12/01 09:41:10;;;;;;;34.00;19.03;;;3.70;99.90;;;;;;4987469;28;20176;-86
2022/12/01 09:43:50;;;;;;;31.23;18.73;;;3.70;99.90;;;;;;5010960;28;20175;-86
2022/12/01 09:46:24;;;;;;;35.00;19.27;;;3.80;99.90;;;;;;5014704;28;20199;-86
2022/12/01 09:48:52;;;;;;;37.13;20.23;;;3.80;99.90;;;;;;5013374;28;20206;-86
2022/12/01 09:51:22;;;;;;;31.50;19.17;;;3.80;99.90;;;;;;4978581;28;20191;-87
2022/12/01 09:53:50;;;;;;;35.27;19.40;;;3.80;99.90;;;;;;4978776;28;20203;-86
2022/12/01 09:56:21;;;;;;;34.60;19.80;;;3.80;99.90;;;;;;4978862;28;20206;-87
2022/12/01 09:58:58;;;;;;;34.23;19.70;;;3.90;99.90;;;;;;4994543;28;20231;-86
2022/12/01 10:01:36;;;;;;;34.50;19.07;;;3.90;99.90;;;;;;4978295;28;20171;-86
2022/12/01 10:04:14;;;;;;;38.00;20.70;;;4.00;99.90;;;;;;4981156;28;20179;-86
2022/12/01 10:06:56;;;;;;;37.57;20.63;;;4.00;99.90;;;;;;4995583;28;20192;-87
2022/12/01 10:09:42;;;;;;;34.00;20.17;;;3.90;99.90;;;;;;5007925;28;20187;-87
2022/12/01 10:12:15;;;;;;;36.40;20.60;;;3.90;99.90;;;;;;5010574;28;20192;-86
2022/12/01 10:14:47;;;;;;;34.80;18.77;;;3.90;99.90;;;;;;5005441;28;20191;-86
2022/12/01 10:18:03;;;;;;;32.50;19.80;;;4.00;99.90;;;;;;4998208;28;20206;-87
2022/12/01 10:20:32;;;;;;;34.63;18.10;;;4.00;99.90;;;;;;5013695;28;20202;-87
2022/12/01 10:23:23;;;;;;;31.90;18.83;;;4.10;99.90;;;;;;4998654;28;20187;-87
2022/12/01 10:26:04;;;;;;;35.73;20.67;;;4.10;99.90;;;;;;4991411;28;20207;-86
2022/12/01 10:28:36;;;;;;;31.30;18.93;;;4.10;99.90;;;;;;4989554;28;20175;-87
2022/12/01 10:31:27;;;;;;;33.97;19.10;;;4.10;99.90;;;;;;5026987;28;20182;-86
2022/12/01 10:34:21;;;;;;;28.17;16.90;;;4.20;99.90;;;;;;5008740;28;20176;-86
2022/12/01 10:36:47;;;;;;;30.27;18.13;;;4.20;99.90;;;;;;4994110;28;20274;-87
2022/12/01 10:39:22;;;;;;;32.67;18.43;;;4.20;99.90;;;;;;5000161;28;20239;-87
2022/12/01 10:41:49;;;;;;;31.20;17.43;;;4.30;99.90;;;;;;4979968;28;20180;-86
2022/12/01 10:44:17;;;;;;;30.23;18.00;;;4.30;99.90;;;;;;4987243;28;20171;-86
2022/12/01 10:47:04;;;;;;;28.50;17.70;;;4.20;99.90;;;;;;4997190;28;20195;-86
2022/12/01 10:49:37;;;;;;;29.47;17.63;;;4.20;99.90;;;;;;4998078;28;20183;-86
2022/12/01 10:52:06;;;;;;;31.03;17.40;;;4.20;99.90;;;;;;4998148;28;20190;-86
2022/12/01 10:54:38;;;;;;;29.37;17.23;;;4.20;99.90;;;;;;5013497;28;20188;-87
2022/12/01 10:57:16;;;;;;;29.03;17.07;;;4.10;99.90;;;;;;4996563;28;20203;-87
2022/12/01 11:00:00;;;;;;;30.80;17.90;;;4.10;99.90;;;;;;5003398;28;20221;-86
2022/12/01 11:02:31;;;;;;;30.10;17.20;;;4.20;99.90;;;;;;4985088;28;20183;-86
2022/12/01 11:05:17;;;;;;;30.60;17.87;;;4.10;99.90;;;;;;4997072;28;20190;-86
2022/12/01 11:07:46;;;;;;;29.60;17.90;;;4.10;99.90;;;;;;4997171;28;20175;-87
2022/12/01 11:10:21;;;;;;;29.63;18.27;;;4.10;99.90;;;;;;4997065;28;20261;-87
2022/12/01 11:12:57;;;;;;;29.77;18.40;;;4.10;99.90;;;;;;5013524;28;20213;-86
2022/12/01 11:15:29;;;;;;;30.77;17.83;;;4.10;99.90;;;;;;5003239;28;20200;-86
2022/12/01 11:18:02;;;;;;;29.40;17.57;;;4.20;99.90;;;;;;4987411;28;20199;-87
2022/12/01 11:20:35;;;;;;;30.80;17.40;;;4.10;99.90;;;;;;4996398;28;20178;-86
2022/12/01 11:23:19;;;;;;;29.00;17.57;;;4.20;99.90;;;;;;5026702;28;20180;-87
2022/12/01 11:26:25;;;;;;;27.27;16.83;;;4.10;99.90;;;;;;5005471;28;20248;-86
2022/12/01 11:28:59;;;;;;;29.53;16.93;;;4.10;99.90;;;;;;4993549;28;20244;-87
2022/12/01 11:31:44;;;;;;;29.93;17.27;;;4.00;99.90;;;;;;5013169;28;20849;-87
2022/12/01 11:34:26;;;;;;;28.60;17.40;;;4.00;99.90;;;;;;5029778;28;20164;-87
2022/12/01 11:37:08;;;;;;;31.17;18.03;;;4.10;99.90;;;;;;4996154;28;20206;-86
2022/12/01 11:39:38;;;;;;;27.93;18.00;;;4.00;99.90;;;;;;5013034;28;20215;-85
2022/12/01 11:42:13;;;;;;;28.67;17.70;;;4.10;99.90;;;;;;4992972;28;20188;-85
2022/12/01 11:44:46;;;;;;;27.90;16.67;;;4.10;99.90;;;;;;4992994;28;20584;-85
2022/12/01 11:47:14;;;;;;;29.33;16.97;;;4.10;99.90;;;;;;4992516;28;20203;-85
2022/12/01 11:49:44;;;;;;;30.40;17.83;;;4.20;99.90;;;;;;4992658;28;20188;-85
2022/12/01 11:52:32;;;;;;;30.30;16.77;;;4.30;99.90;;;;;;4992945;28;20214;-85
2022/12/01 11:55:19;;;;;;;26.03;16.13;;;4.20;99.90;;;;;;5008993;28;20187;-86
2022/12/01 11:57:47;;;;;;;27.40;16.90;;;4.20;99.90;;;;;;5009022;28;20176;-85
2022/12/01 12:00:23;;;;;;;29.27;17.83;;;4.20;99.90;;;;;;4992430;28;20184;-85
2022/12/01 12:02:49;;;;;;;27.37;16.63;;;4.20;99.90;;;;;;5010297;28;20640;-85
2022/12/01 12:05:33;;;;;;;28.67;17.20;;;4.20;99.90;;;;;;5012023;28;20235;-85
2022/12/01 12:08:16;;;;;;;25.43;15.57;;;4.20;99.90;;;;;;5011552;28;20194;-86
2022/12/01 12:11:14;;;;;;;24.57;16.33;;;4.10;99.90;;;;;;4992456;28;20173;-85
2022/12/01 12:14:08;;;;;;;29.87;17.43;;;4.10;99.90;;;;;;4980520;28;20191;-85
2022/12/01 12:17:19;;;;;;;29.00;17.23;;;4.10;99.90;;;;;;4977457;28;20203;-85
2022/12/01 12:20:24;;;;;;;27.23;16.97;;;4.10;99.90;;;;;;4969581;28;20227;-85
2022/12/01 12:23:03;;;;;;;28.57;17.17;;;4.00;99.90;;;;;;4982115;28;20669;-85
2022/12/01 12:25:51;;;;;;;28.43;17.40;;;4.00;99.90;;;;;;5001013;28;20226;-85
2022/12/01 12:28:45;;;;;;;28.93;17.57;;;4.10;99.90;;;;;;5000686;28;20186;-85
2022/12/01 12:32:05;;;;;;;27.27;17.10;;;4.10;99.90;;;;;;5009296;28;20259;-85
2022/12/01 12:34:37;;;;;;;29.43;17.93;;;4.10;99.90;;;;;;5016243;28;20206;-85
2022/12/01 12:37:06;;;;;;;28.03;17.43;;;4.10;99.90;;;;;;5010136;28;20198;-85
2022/12/01 12:40:23;;;;;;;29.30;17.43;;;4.10;99.90;;;;;;5004723;28;20207;-85
2022/12/01 12:42:49;;;;;;;34.30;16.93;;;4.10;99.90;;;;;;4979542;28;20550;-85
2022/12/01 12:45:37;;;;;;;30.13;18.80;;;4.20;99.90;;;;;;5011979;28;20179;-85
2022/12/01 12:48:27;;;;;;;30.63;18.07;;;4.00;99.90;;;;;;5011616;28;20606;-85
2022/12/01 12:51:15;;;;;;;30.83;17.53;;;4.10;99.90;;;;;;5011770;28;20233;-85
2022/12/01 12:54:01;;;;;;;27.00;16.30;;;4.20;99.90;;;;;;4980721;28;20223;-86
2022/12/01 12:56:30;;;;;;;29.77;18.23;;;4.20;99.90;;;;;;5011942;28;20199;-86
2022/12/01 12:58:56;;;;;;;30.47;18.93;;;4.30;99.90;;;;;;4999562;28;20246;-86
2022/12/01 13:01:33;;;;;;;29.80;17.90;;;4.30;99.90;;;;;;4976384;28;20204;-86
2022/12/01 13:04:01;;;;;;;29.37;17.73;;;4.30;99.90;;;;;;4994385;28;20613;-86
2022/12/01 13:06:46;;;;;;;29.63;17.40;;;4.20;99.90;;;;;;5010599;28;20200;-86
2022/12/01 13:09:25;;;;;;;27.50;17.03;;;4.30;99.90;;;;;;4999143;28;20277;-86